createdAt,value
2018-05-26T00:02:06.152Z,17.70
2018-05-26T00:04:34.574Z,17.60
2018-05-26T00:07:02.916Z,17.50
2018-05-26T00:09:31.273Z,17.40
2018-05-26T00:11:59.593Z,17.20
2018-05-26T00:14:27.931Z,17.10
2018-05-26T00:16:56.332Z,17.10
2018-05-26T00:19:24.788Z,17.20
2018-05-26T00:21:53.179Z,17.00
2018-05-26T00:24:22.351Z,17.00
2018-05-26T00:26:51.501Z,17.10
2018-05-26T00:29:19.863Z,17.10
2018-05-26T00:31:48.989Z,17.00
2018-05-26T00:34:17.397Z,17.00
2018-05-26T00:36:45.758Z,17.00
2018-05-26T00:39:14.178Z,16.90
2018-05-26T00:41:42.560Z,16.90
2018-05-26T00:44:10.896Z,17.00
2018-05-26T00:46:39.303Z,16.80
2018-05-26T00:49:08.469Z,16.80
2018-05-26T00:51:36.832Z,16.80
2018-05-26T00:54:05.225Z,16.90
2018-05-26T00:56:33.539Z,16.70
2018-05-26T00:59:01.956Z,16.50
2018-05-26T01:01:30.317Z,16.40
2018-05-26T01:03:58.677Z,16.40
2018-05-26T01:06:27.801Z,16.30
2018-05-26T01:08:56.195Z,16.30
2018-05-26T01:11:24.655Z,16.40
2018-05-26T01:13:53.060Z,16.70
2018-05-26T01:16:21.395Z,17.10
2018-05-26T01:18:49.727Z,16.80
2018-05-26T01:21:18.141Z,16.40
2018-05-26T01:23:46.556Z,16.20
2018-05-26T01:26:15.288Z,16.10
2018-05-26T01:28:43.616Z,16.10
2018-05-26T01:31:12.776Z,17.00
2018-05-26T01:33:41.141Z,17.00
2018-05-26T01:36:09.549Z,17.30
2018-05-26T01:38:37.955Z,16.80
2018-05-26T01:41:06.310Z,16.40
2018-05-26T01:43:34.709Z,16.20
2018-05-26T01:46:03.088Z,16.00
2018-05-26T01:48:31.495Z,15.90
2018-05-26T01:50:59.827Z,15.90
2018-05-26T01:53:28.203Z,16.00
2018-05-26T01:55:56.594Z,15.90
2018-05-26T01:58:25.035Z,15.80
2018-05-26T02:00:53.378Z,15.80
2018-05-26T02:03:21.800Z,15.70
2018-05-26T02:05:50.138Z,15.70
2018-05-26T02:08:18.489Z,15.70
2018-05-26T02:10:47.600Z,15.70
2018-05-26T02:13:16.727Z,15.90
2018-05-26T02:15:45.110Z,15.90
2018-05-26T02:18:13.448Z,16.60
2018-05-26T02:20:41.844Z,16.60
2018-05-26T02:23:10.174Z,16.20
2018-05-26T02:25:39.348Z,15.90
2018-05-26T02:28:07.667Z,15.90
2018-05-26T02:30:36.803Z,15.60
2018-05-26T02:33:05.194Z,15.50
2018-05-26T02:35:33.582Z,15.40
2018-05-26T02:38:01.990Z,15.40
2018-05-26T02:40:30.377Z,15.50
2018-05-26T02:42:58.804Z,15.70
2018-05-26T02:45:27.199Z,16.20
2018-05-26T02:47:55.553Z,16.10
2018-05-26T02:50:23.944Z,15.90
2018-05-26T02:52:52.313Z,15.60
2018-05-26T02:55:21.481Z,15.40
2018-05-26T02:57:49.795Z,15.40
2018-05-26T03:00:18.923Z,15.50
2018-05-26T03:02:47.299Z,15.50
2018-05-26T03:05:21.203Z,15.60
2018-05-26T03:07:54.959Z,15.70
2018-05-26T03:10:28.931Z,15.50
2018-05-26T03:13:02.883Z,15.90
2018-05-26T03:15:31.232Z,15.90
2018-05-26T03:18:01.437Z,15.50
2018-05-26T03:20:29.855Z,15.40
2018-05-26T03:22:58.179Z,15.20
2018-05-26T03:25:26.524Z,15.20
2018-05-26T03:27:54.879Z,15.30
2018-05-26T03:30:24.044Z,15.10
2018-05-26T03:32:52.429Z,15.10
2018-05-26T03:35:20.828Z,15.00
2018-05-26T03:37:49.235Z,15.00
2018-05-26T03:40:17.579Z,14.90
2018-05-26T03:42:46.255Z,15.00
2018-05-26T03:45:15.419Z,15.30
2018-05-26T03:47:43.819Z,15.30
2018-05-26T03:50:12.168Z,15.80
2018-05-26T03:52:41.279Z,15.50
2018-05-26T03:58:42.463Z,15.30
2018-05-26T04:01:11.643Z,15.40
2018-05-26T04:03:40.048Z,15.40
2018-05-26T04:06:09.551Z,15.50
2018-05-26T04:08:37.959Z,15.80
2018-05-26T04:11:07.130Z,15.40
2018-05-26T04:13:35.472Z,15.40
2018-05-26T04:16:04.669Z,15.50
2018-05-26T04:18:33.836Z,15.40
2018-05-26T04:21:02.172Z,15.30
2018-05-26T04:23:30.556Z,15.30
2018-05-26T04:25:58.973Z,15.30
2018-05-26T04:28:28.131Z,15.30
2018-05-26T04:30:56.483Z,15.30
2018-05-26T04:33:24.834Z,15.40
2018-05-26T04:35:53.261Z,15.40
2018-05-26T04:38:22.415Z,15.40
2018-05-26T04:40:50.821Z,15.40
2018-05-26T04:43:19.170Z,15.40
2018-05-26T04:45:47.645Z,15.40
2018-05-26T04:48:16.276Z,15.60
2018-05-26T04:50:45.464Z,16.20
2018-05-26T04:53:13.863Z,16.20
2018-05-26T04:55:42.194Z,16.50
2018-05-26T04:58:10.572Z,16.40
2018-05-26T05:00:38.958Z,16.50
2018-05-26T05:03:07.323Z,16.40
2018-05-26T05:05:36.463Z,16.70
2018-05-26T05:08:05.538Z,16.70
2018-05-26T05:10:33.899Z,16.60
2018-05-26T05:13:02.289Z,16.60
2018-05-26T05:15:30.665Z,16.50
2018-05-26T05:17:59.019Z,16.40
2018-05-26T05:20:27.451Z,16.50
2018-05-26T05:23:09.849Z,16.50
2018-05-26T05:25:38.469Z,16.70
2018-05-26T05:28:06.846Z,16.90
2018-05-26T05:30:35.993Z,16.90
2018-05-26T05:33:04.407Z,16.80
2018-05-26T05:35:33.931Z,16.90
2018-05-26T05:38:02.415Z,17.10
2018-05-26T05:40:31.071Z,17.30
2018-05-26T05:43:00.219Z,17.40
2018-05-26T05:45:28.810Z,17.10
2018-05-26T05:47:57.284Z,17.10
2018-05-26T05:50:25.720Z,17.10
2018-05-26T05:52:54.146Z,17.30
2018-05-26T05:55:22.554Z,17.50
2018-05-26T05:57:50.967Z,17.40
2018-05-26T06:00:19.333Z,17.50
2018-05-26T06:02:47.764Z,17.70
2018-05-26T06:05:16.147Z,17.70
2018-05-26T06:07:44.483Z,17.70
2018-05-26T06:10:12.876Z,17.70
2018-05-26T06:12:41.243Z,17.70
2018-05-26T06:15:09.690Z,17.70
2018-05-26T06:17:39.731Z,17.80
2018-05-26T06:20:08.136Z,18.00
2018-05-26T06:22:36.575Z,18.10
2018-05-26T06:25:05.045Z,18.20
2018-05-26T06:27:33.677Z,18.30
2018-05-26T06:30:02.401Z,18.30
2018-05-26T06:32:30.858Z,18.40
2018-05-26T06:34:59.232Z,18.40
2018-05-26T06:37:27.627Z,18.40
2018-05-26T06:39:56.039Z,18.50
2018-05-26T06:42:24.426Z,18.60
2018-05-26T06:44:52.847Z,18.70
2018-05-26T06:47:21.257Z,18.80
2018-05-26T06:49:49.667Z,18.80
2018-05-26T06:52:18.051Z,19.00
2018-05-26T06:54:46.461Z,19.10
2018-05-26T06:57:14.851Z,19.20
2018-05-26T06:59:43.220Z,19.40
2018-05-26T07:02:11.603Z,19.40
2018-05-26T07:04:40.029Z,19.40
2018-05-26T07:07:08.420Z,19.50
2018-05-26T07:09:48.038Z,19.80
2018-05-26T07:12:19.198Z,20.10
2018-05-26T07:14:47.519Z,20.20
2018-05-26T07:17:15.872Z,20.20
2018-05-26T07:19:44.235Z,20.40
2018-05-26T07:22:13.541Z,20.60
2018-05-26T07:24:41.956Z,20.60
2018-05-26T07:27:16.551Z,20.60
2018-05-26T07:29:45.129Z,20.60
2018-05-26T07:32:13.539Z,20.70
2018-05-26T07:34:41.923Z,20.70
2018-05-26T07:37:10.290Z,20.80
2018-05-26T07:39:53.445Z,21.10
2018-05-26T07:42:21.818Z,21.20
2018-05-26T07:44:50.198Z,21.30
2018-05-26T07:47:18.559Z,21.30
2018-05-26T07:49:47.389Z,21.40
2018-05-26T07:52:15.790Z,21.40
2018-05-26T07:54:44.195Z,21.60
2018-05-26T07:57:12.548Z,21.80
2018-05-26T07:59:41.978Z,21.70
2018-05-26T08:02:10.484Z,21.70
2018-05-26T08:04:38.877Z,21.90
2018-05-26T08:07:07.251Z,21.90
2018-05-26T08:09:35.574Z,22.10
2018-05-26T08:12:04.735Z,22.40
2018-05-26T08:14:33.087Z,22.30
2018-05-26T08:17:01.491Z,22.40
2018-05-26T08:19:29.916Z,22.60
2018-05-26T08:21:58.291Z,22.80
2018-05-26T08:24:26.662Z,22.90
2018-05-26T08:26:55.041Z,23.00
2018-05-26T08:29:23.397Z,23.20
2018-05-26T08:31:51.725Z,23.40
2018-05-26T08:34:20.108Z,23.50
2018-05-26T08:36:49.236Z,23.70
2018-05-26T08:39:17.774Z,23.90
2018-05-26T08:41:46.121Z,24.00
2018-05-26T08:44:14.514Z,24.20
2018-05-26T08:46:42.875Z,24.20
2018-05-26T08:49:11.252Z,24.30
2018-05-26T08:51:39.587Z,24.50
2018-05-26T08:54:10.477Z,24.60
2018-05-26T08:56:38.867Z,24.60
2018-05-26T08:59:07.243Z,24.70
2018-05-26T09:01:35.587Z,24.70
2018-05-26T09:04:04.007Z,24.80
2018-05-26T09:06:32.368Z,24.90
2018-05-26T09:09:00.716Z,25.10
2018-05-26T09:11:29.092Z,25.00
2018-05-26T09:13:57.468Z,25.00
2018-05-26T09:16:25.819Z,25.00
2018-05-26T09:18:54.161Z,25.20
2018-05-26T09:21:22.503Z,25.50
2018-05-26T09:23:50.884Z,25.80
2018-05-26T09:26:19.314Z,25.90
2018-05-26T09:28:47.726Z,25.90
2018-05-26T09:31:16.148Z,26.00
2018-05-26T09:33:44.552Z,26.20
2018-05-26T09:36:12.952Z,26.20
2018-05-26T09:38:51.147Z,26.30
2018-05-26T09:41:29.618Z,26.50
2018-05-26T09:43:58.101Z,26.60
2018-05-26T09:46:26.568Z,26.50
2018-05-26T09:48:54.967Z,26.70
2018-05-26T09:51:23.446Z,26.80
2018-05-26T09:53:52.670Z,27.00
2018-05-26T09:59:13.015Z,27.20
2018-05-26T10:01:41.445Z,27.00
2018-05-26T10:04:09.935Z,27.20
2018-05-26T10:06:38.284Z,27.20
2018-05-26T10:09:06.745Z,27.60
2018-05-26T10:11:35.262Z,27.70
2018-05-26T10:14:03.756Z,27.70
2018-05-26T10:16:32.191Z,27.70
2018-05-26T10:19:00.630Z,27.70
2018-05-26T10:21:29.003Z,27.60
2018-05-26T10:23:57.480Z,27.70
2018-05-26T10:26:25.938Z,28.00
2018-05-26T10:28:54.415Z,28.30
2018-05-26T10:31:22.818Z,28.30
2018-05-26T10:33:51.250Z,28.50
2018-05-26T10:36:19.655Z,28.70
2018-05-26T10:38:48.100Z,28.70
2018-05-26T10:41:16.566Z,28.70
2018-05-26T10:43:45.057Z,28.90
2018-05-26T10:46:25.884Z,29.20
2018-05-26T10:48:54.317Z,28.80
2018-05-26T10:51:22.768Z,28.60
2018-05-26T10:53:51.338Z,28.50
2018-05-26T10:56:19.885Z,28.70
2018-05-26T10:58:48.658Z,28.60
2018-05-26T11:01:17.135Z,28.90
2018-05-26T11:03:45.573Z,29.10
2018-05-26T11:06:14.084Z,29.20
2018-05-26T11:08:42.621Z,29.20
2018-05-26T11:14:21.297Z,29.50
2018-05-26T11:16:49.693Z,30.10
2018-05-26T11:19:18.087Z,29.60
2018-05-26T11:21:46.411Z,29.40
2018-05-26T11:24:26.665Z,29.30
2018-05-26T11:26:55.521Z,29.60
2018-05-26T11:29:23.911Z,29.70
2018-05-26T11:32:02.628Z,30.00
2018-05-26T11:34:37.664Z,30.10
2018-05-26T11:37:06.019Z,29.80
2018-05-26T11:42:57.926Z,29.80
2018-05-26T11:45:29.103Z,29.70
2018-05-26T11:47:57.443Z,30.70
2018-05-26T11:50:25.769Z,31.40
2018-05-26T11:52:54.158Z,31.60
2018-05-26T11:55:22.596Z,31.30
2018-05-26T11:57:50.980Z,30.90
2018-05-26T12:00:20.587Z,31.00
2018-05-26T12:02:49.065Z,31.50
2018-05-26T12:05:17.725Z,30.60
2018-05-26T12:07:55.554Z,31.00
2018-05-26T12:10:24.531Z,31.20
2018-05-26T12:12:52.947Z,31.30
2018-05-26T12:15:21.284Z,30.90
2018-05-26T12:17:49.683Z,30.70
2018-05-26T12:20:18.260Z,30.50
2018-05-26T12:22:46.620Z,30.60
2018-05-26T12:25:15.064Z,30.70
2018-05-26T12:27:43.443Z,30.10
2018-05-26T12:30:11.809Z,30.40
2018-05-26T12:32:40.147Z,30.60
2018-05-26T12:38:18.675Z,30.30
2018-05-26T12:40:47.039Z,30.40
2018-05-26T12:43:15.459Z,30.00
2018-05-26T12:45:43.793Z,29.80
2018-05-26T12:48:12.984Z,29.90
2018-05-26T12:50:41.349Z,29.90
2018-05-26T12:53:09.712Z,30.20
2018-05-26T12:55:38.156Z,30.50
2018-05-26T12:58:06.500Z,30.90
2018-05-26T13:00:34.887Z,30.80
2018-05-26T13:03:03.277Z,30.70
2018-05-26T13:05:31.656Z,30.10
2018-05-26T13:08:00.827Z,30.20
2018-05-26T13:10:31.882Z,30.20
2018-05-26T13:13:00.393Z,30.60
2018-05-26T13:15:28.870Z,30.90
2018-05-26T13:17:57.584Z,31.60
2018-05-26T13:20:26.121Z,31.90
2018-05-26T13:22:54.523Z,31.50
2018-05-26T13:25:22.961Z,31.50
2018-05-26T13:27:51.359Z,31.60
2018-05-26T13:30:19.748Z,32.20
2018-05-26T13:32:48.102Z,32.30
2018-05-26T13:35:16.476Z,32.50
2018-05-26T13:37:44.812Z,32.30
2018-05-26T13:40:13.157Z,31.60
2018-05-26T13:42:41.533Z,31.60
2018-05-26T13:45:09.916Z,31.80
2018-05-26T13:47:38.319Z,31.50
2018-05-26T13:50:06.716Z,31.20
2018-05-26T13:52:41.697Z,31.30
2018-05-26T13:55:10.152Z,31.70
2018-05-26T13:57:38.474Z,31.50
2018-05-26T14:00:06.838Z,31.90
2018-05-26T14:02:35.256Z,31.70
2018-05-26T14:05:03.647Z,32.10
2018-05-26T14:07:32.210Z,32.30
2018-05-26T14:10:00.678Z,31.90
2018-05-26T14:12:29.454Z,32.00
2018-05-26T14:14:57.783Z,31.90
2018-05-26T14:17:26.207Z,31.60
2018-05-26T14:20:00.932Z,31.50
2018-05-26T14:22:29.341Z,31.80
2018-05-26T14:25:01.109Z,32.10
2018-05-26T14:27:29.741Z,32.20
2018-05-26T14:29:59.475Z,32.10
2018-05-26T14:32:27.881Z,31.40
2018-05-26T14:34:56.296Z,31.60
2018-05-26T14:37:24.692Z,31.60
2018-05-26T14:39:53.040Z,31.40
2018-05-26T14:42:21.360Z,31.30
2018-05-26T14:44:49.786Z,31.50
2018-05-26T14:47:18.119Z,30.90
2018-05-26T14:49:46.498Z,31.10
2018-05-26T14:52:14.809Z,30.90
2018-05-26T14:54:43.188Z,30.40
2018-05-26T14:57:11.514Z,30.80
2018-05-26T14:59:39.864Z,30.80
2018-05-26T15:02:08.167Z,30.70
2018-05-26T15:04:36.563Z,30.80
2018-05-26T15:07:04.954Z,31.00
2018-05-26T15:09:33.345Z,31.20
2018-05-26T15:12:01.956Z,31.10
2018-05-26T15:14:30.286Z,31.20
2018-05-26T15:16:58.642Z,31.20
2018-05-26T15:22:36.557Z,31.10
2018-05-26T15:25:04.931Z,31.20
2018-05-26T15:27:33.292Z,31.00
2018-05-26T15:30:01.627Z,31.00
2018-05-26T15:32:29.960Z,30.80
2018-05-26T15:34:58.395Z,31.00
2018-05-26T15:37:26.776Z,30.90
2018-05-26T15:39:55.875Z,30.70
2018-05-26T15:42:24.250Z,30.60
2018-05-26T15:44:52.581Z,30.70
2018-05-26T15:47:20.935Z,30.90
2018-05-26T15:49:49.302Z,30.90
2018-05-26T15:52:18.375Z,30.90
2018-05-26T15:54:46.826Z,30.90
2018-05-26T15:57:15.203Z,30.90
2018-05-26T15:59:43.544Z,31.00
2018-05-26T16:02:11.883Z,31.20
2018-05-26T16:04:40.215Z,31.10
2018-05-26T16:07:08.619Z,30.70
2018-05-26T16:09:36.993Z,31.00
2018-05-26T16:12:05.295Z,30.80
2018-05-26T16:14:33.611Z,31.10
2018-05-26T16:17:01.946Z,31.10
2018-05-26T16:19:30.252Z,31.00
2018-05-26T16:21:58.623Z,30.90
2018-05-26T16:24:26.989Z,31.20
2018-05-26T16:26:56.431Z,31.10
2018-05-26T16:29:24.859Z,31.20
2018-05-26T16:31:53.959Z,30.90
2018-05-26T16:34:22.297Z,30.90
2018-05-26T16:36:50.630Z,30.80
2018-05-26T16:39:18.952Z,30.60
2018-05-26T16:41:47.366Z,30.60
2018-05-26T16:44:15.696Z,30.40
2018-05-26T16:46:44.069Z,30.60
2018-05-26T16:49:12.407Z,30.70
2018-05-26T16:51:40.733Z,30.60
2018-05-26T16:54:09.091Z,30.40
2018-05-26T16:56:37.405Z,30.20
2018-05-26T16:59:08.262Z,30.00
2018-05-26T17:01:36.584Z,30.00
2018-05-26T17:04:04.929Z,30.20
2018-05-26T17:06:33.266Z,30.00
2018-05-26T17:09:01.612Z,30.10
2018-05-26T17:11:29.972Z,30.00
2018-05-26T17:13:58.289Z,30.00
2018-05-26T17:16:26.669Z,30.00
2018-05-26T17:18:55.060Z,30.00
2018-05-26T17:21:23.532Z,29.60
2018-05-26T17:23:52.620Z,29.30
2018-05-26T17:26:20.998Z,29.30
2018-05-26T17:28:49.354Z,29.20
2018-05-26T17:31:17.683Z,29.20
2018-05-26T17:33:46.032Z,29.20
2018-05-26T17:36:14.861Z,29.00
2018-05-26T17:38:43.222Z,28.90
2018-05-26T17:41:11.541Z,28.70
2018-05-26T17:43:39.861Z,28.40
2018-05-26T17:46:08.267Z,28.30
2018-05-26T17:48:36.670Z,28.20
2018-05-26T17:51:04.997Z,28.20
2018-05-26T17:53:33.333Z,28.10
2018-05-26T17:56:01.761Z,27.90
2018-05-26T17:58:30.097Z,27.80
2018-05-26T18:00:58.431Z,27.80
2018-05-26T18:03:26.770Z,27.80
2018-05-26T18:05:55.087Z,27.60
2018-05-26T18:08:23.463Z,27.60
2018-05-26T18:10:53.113Z,27.50
2018-05-26T18:13:21.507Z,27.50
2018-05-26T18:15:49.895Z,27.40
2018-05-26T18:18:18.389Z,27.20
2018-05-26T18:20:46.799Z,27.20
2018-05-26T18:23:15.124Z,27.10
2018-05-26T18:25:43.466Z,27.10
2018-05-26T18:28:11.787Z,27.10
2018-05-26T18:30:40.141Z,26.90
2018-05-26T18:33:08.462Z,26.90
2018-05-26T18:35:37.543Z,26.70
2018-05-26T18:38:05.993Z,26.70
2018-05-26T18:40:34.493Z,26.70
2018-05-26T18:43:02.831Z,26.70
2018-05-26T18:45:31.148Z,26.60
2018-05-26T18:47:59.484Z,26.50
2018-05-26T18:50:31.799Z,26.50
2018-05-26T18:53:03.091Z,26.50
2018-05-26T18:55:31.408Z,26.50
2018-05-26T18:57:59.747Z,26.50
2018-05-26T19:00:28.063Z,26.50
2018-05-26T19:02:56.415Z,26.40
2018-05-26T19:05:24.750Z,26.10
2018-05-26T19:07:53.182Z,26.10
2018-05-26T19:10:21.515Z,26.00
2018-05-26T19:12:49.904Z,25.90
2018-05-26T19:15:18.235Z,25.80
2018-05-26T19:17:46.552Z,25.70
2018-05-26T19:20:14.893Z,25.70
2018-05-26T19:22:43.216Z,25.60
2018-05-26T19:25:11.547Z,25.60
2018-05-26T19:27:40.629Z,25.40
2018-05-26T19:30:08.979Z,25.40
2018-05-26T19:32:37.295Z,25.30
2018-05-26T19:35:05.620Z,25.30
2018-05-26T19:37:33.955Z,25.20
2018-05-26T19:40:02.288Z,25.20
2018-05-26T19:42:30.622Z,25.20
2018-05-26T19:44:58.984Z,25.20
2018-05-26T19:47:27.327Z,25.10
2018-05-26T19:49:55.668Z,25.00
2018-05-26T19:52:24.000Z,25.00
2018-05-26T19:54:52.318Z,24.90
2018-05-26T19:57:20.639Z,24.90
2018-05-26T19:59:48.955Z,24.80
2018-05-26T20:02:17.270Z,24.70
2018-05-26T20:04:45.576Z,24.70
2018-05-26T20:07:13.924Z,24.70
2018-05-26T20:09:42.264Z,24.60
2018-05-26T20:12:10.642Z,24.50
2018-05-26T20:14:38.999Z,24.50
2018-05-26T20:17:07.334Z,24.40
2018-05-26T20:19:35.740Z,24.30
2018-05-26T20:22:04.083Z,24.20
2018-05-26T20:24:32.411Z,24.10
2018-05-26T20:27:00.760Z,24.00
2018-05-26T20:29:29.131Z,23.90
2018-05-26T20:31:57.508Z,23.80
2018-05-26T20:34:25.980Z,23.70
2018-05-26T20:36:54.298Z,23.70
2018-05-26T20:39:23.559Z,23.70
2018-05-26T20:41:51.926Z,23.60
2018-05-26T20:44:20.274Z,23.40
2018-05-26T20:46:48.598Z,23.10
2018-05-26T20:49:17.667Z,23.00
2018-05-26T20:51:46.044Z,23.00
2018-05-26T20:54:14.354Z,23.10
2018-05-26T20:56:42.696Z,23.10
2018-05-26T20:59:11.062Z,23.10
2018-05-26T21:01:39.395Z,23.10
2018-05-26T21:04:07.760Z,23.10
2018-05-26T21:06:36.128Z,23.10
2018-05-26T21:09:05.138Z,23.00
2018-05-26T21:11:33.462Z,23.00
2018-05-26T21:14:01.844Z,22.90
2018-05-26T21:16:30.163Z,22.80
2018-05-26T21:18:58.554Z,22.80
2018-05-26T21:21:26.911Z,22.80
2018-05-26T21:23:55.239Z,22.70
2018-05-26T21:26:23.637Z,22.60
2018-05-26T21:28:51.983Z,22.60
2018-05-26T21:31:21.135Z,22.60
2018-05-26T21:33:49.466Z,22.60
2018-05-26T21:36:17.842Z,22.60
2018-05-26T21:38:46.199Z,22.60
2018-05-26T21:41:14.533Z,22.00
2018-05-26T21:43:42.872Z,22.10
2018-05-26T21:46:11.999Z,21.60
2018-05-26T21:48:40.319Z,21.50
2018-05-26T21:51:08.644Z,21.50
2018-05-26T21:53:36.997Z,21.50
2018-05-26T21:56:05.374Z,21.40
2018-05-26T21:58:33.699Z,21.30
2018-05-26T22:01:02.019Z,21.20
2018-05-26T22:03:31.167Z,21.10
2018-05-26T22:05:59.488Z,21.10
2018-05-26T22:08:27.823Z,21.00
2018-05-26T22:10:56.907Z,21.20
2018-05-26T22:13:25.271Z,21.20
2018-05-26T22:15:53.657Z,21.20
2018-05-26T22:18:22.025Z,20.80
2018-05-26T22:20:50.333Z,20.70
2018-05-26T22:23:18.677Z,20.70
2018-05-26T22:25:47.003Z,20.60
2018-05-26T22:28:15.347Z,20.70
2018-05-26T22:30:43.686Z,20.60
2018-05-26T22:33:12.015Z,20.40
2018-05-26T22:35:40.390Z,20.50
2018-05-26T22:38:08.723Z,20.30
2018-05-26T22:40:37.039Z,20.30
2018-05-26T22:43:05.376Z,20.20
2018-05-26T22:45:33.725Z,20.10
2018-05-26T22:48:02.055Z,20.00
2018-05-26T22:50:30.379Z,20.20
2018-05-26T22:52:58.716Z,20.30
2018-05-26T22:55:27.058Z,20.40
2018-05-26T22:57:55.428Z,20.10
2018-05-26T23:00:27.643Z,19.90
2018-05-26T23:02:56.043Z,19.80
2018-05-26T23:05:24.367Z,19.80
2018-05-26T23:07:52.679Z,20.10
2018-05-26T23:10:21.072Z,19.80
2018-05-26T23:12:50.117Z,20.10
2018-05-26T23:15:19.466Z,20.20
2018-05-26T23:17:47.803Z,19.90
2018-05-26T23:20:16.160Z,19.80
2018-05-26T23:22:44.479Z,19.70
2018-05-26T23:25:12.815Z,19.50
2018-05-26T23:27:41.183Z,19.60
2018-05-26T23:30:09.567Z,19.30
2018-05-26T23:32:37.954Z,19.90
2018-05-26T23:35:06.342Z,20.30
2018-05-26T23:37:34.730Z,20.00
2018-05-26T23:40:03.043Z,19.90
2018-05-26T23:42:31.443Z,19.40
2018-05-26T23:44:59.748Z,18.90
2018-05-26T23:47:28.120Z,18.80
2018-05-26T23:50:03.692Z,18.70
2018-05-26T23:52:32.083Z,18.70
2018-05-26T23:55:00.419Z,19.20
2018-05-26T23:57:28.787Z,19.80
2018-05-26T23:59:57.107Z,20.10
